sensor_id;sensor_type;location;lat;lon;timestamp;P1;durP1;ratioP1;P2;durP2;ratioP2
40991;SDS011;29633;49.168;9.848;2022-08-04T00:04:29;1.88;;;0.60;;
40991;SDS011;29633;49.168;9.848;2022-08-04T00:10:05;1.20;;;0.65;;
40991;SDS011;29633;49.168;9.848;2022-08-04T00:12:33;1.20;;;0.50;;
40991;SDS011;29633;49.168;9.848;2022-08-04T00:15:06;1.30;;;0.68;;
40991;SDS011;29633;49.168;9.848;2022-08-04T00:17:38;2.42;;;0.60;;
40991;SDS011;29633;49.168;9.848;2022-08-04T00:20:23;0.90;;;0.60;;
40991;SDS011;29633;49.168;9.848;2022-08-04T00:22:53;0.80;;;0.57;;
40991;SDS011;29633;49.168;9.848;2022-08-04T00:25:19;2.70;;;0.75;;
40991;SDS011;29633;49.168;9.848;2022-08-04T00:27:46;1.85;;;0.60;;
40991;SDS011;29633;49.168;9.848;2022-08-04T00:30:12;1.00;;;0.63;;
40991;SDS011;29633;49.168;9.848;2022-08-04T00:32:41;0.70;;;0.60;;
40991;SDS011;29633;49.168;9.848;2022-08-04T00:35:08;0.80;;;0.57;;
40991;SDS011;29633;49.168;9.848;2022-08-04T00:37:36;3.63;;;0.70;;
40991;SDS011;29633;49.168;9.848;2022-08-04T00:40:04;1.58;;;0.70;;
40991;SDS011;29633;49.168;9.848;2022-08-04T01:01:21;1.73;;;0.68;;
40991;SDS011;29633;49.168;9.848;2022-08-04T01:04:12;1.67;;;0.60;;
40991;SDS011;29633;49.168;9.848;2022-08-04T01:07:19;0.75;;;0.57;;
40991;SDS011;29633;49.168;9.848;2022-08-04T01:10:21;1.75;;;0.65;;
40991;SDS011;29633;49.168;9.848;2022-08-04T01:16:15;2.08;;;0.60;;
40991;SDS011;29633;49.168;9.848;2022-08-04T01:18:56;0.93;;;0.70;;
40991;SDS011;29633;49.168;9.848;2022-08-04T01:21:54;1.40;;;0.70;;
40991;SDS011;29633;49.168;9.848;2022-08-04T01:30:36;1.70;;;0.60;;
40991;SDS011;29633;49.168;9.848;2022-08-04T01:33:12;1.40;;;0.70;;
40991;SDS011;29633;49.168;9.848;2022-08-04T01:35:42;0.80;;;0.70;;
40991;SDS011;29633;49.168;9.848;2022-08-04T01:38:36;1.85;;;0.77;;
40991;SDS011;29633;49.168;9.848;2022-08-04T01:41:08;1.00;;;0.60;;
40991;SDS011;29633;49.168;9.848;2022-08-04T01:43:42;0.70;;;0.70;;
40991;SDS011;29633;49.168;9.848;2022-08-04T01:46:14;1.00;;;0.63;;
40991;SDS011;29633;49.168;9.848;2022-08-04T01:51:11;1.90;;;0.57;;
40991;SDS011;29633;49.168;9.848;2022-08-04T01:53:38;0.80;;;0.60;;
40991;SDS011;29633;49.168;9.848;2022-08-04T01:56:08;1.80;;;0.63;;
40991;SDS011;29633;49.168;9.848;2022-08-04T01:58:36;1.17;;;0.57;;
40991;SDS011;29633;49.168;9.848;2022-08-04T02:01:04;2.55;;;0.68;;
40991;SDS011;29633;49.168;9.848;2022-08-04T02:03:36;1.30;;;0.65;;
40991;SDS011;29633;49.168;9.848;2022-08-04T02:14:26;1.30;;;0.70;;
40991;SDS011;29633;49.168;9.848;2022-08-04T02:17:10;0.88;;;0.60;;
40991;SDS011;29633;49.168;9.848;2022-08-04T02:20:18;2.70;;;0.63;;
40991;SDS011;29633;49.168;9.848;2022-08-04T02:22:59;2.63;;;0.80;;
40991;SDS011;29633;49.168;9.848;2022-08-04T02:25:31;0.80;;;0.60;;
40991;SDS011;29633;49.168;9.848;2022-08-04T02:33:58;0.70;;;0.70;;
40991;SDS011;29633;49.168;9.848;2022-08-04T02:36:55;1.10;;;0.70;;
40991;SDS011;29633;49.168;9.848;2022-08-04T02:39:24;0.85;;;0.70;;
40991;SDS011;29633;49.168;9.848;2022-08-04T02:41:55;0.60;;;0.60;;
40991;SDS011;29633;49.168;9.848;2022-08-04T02:44:23;1.67;;;0.73;;
40991;SDS011;29633;49.168;9.848;2022-08-04T02:46:52;1.23;;;0.63;;
40991;SDS011;29633;49.168;9.848;2022-08-04T02:49:22;0.80;;;0.63;;
40991;SDS011;29633;49.168;9.848;2022-08-04T02:51:51;1.08;;;0.65;;
40991;SDS011;29633;49.168;9.848;2022-08-04T02:54:21;1.67;;;0.80;;
40991;SDS011;29633;49.168;9.848;2022-08-04T02:56:52;1.15;;;0.70;;
40991;SDS011;29633;49.168;9.848;2022-08-04T02:59:22;1.10;;;0.80;;
40991;SDS011;29633;49.168;9.848;2022-08-04T03:01:52;0.88;;;0.80;;
40991;SDS011;29633;49.168;9.848;2022-08-04T03:09:30;2.80;;;0.70;;
40991;SDS011;29633;49.168;9.848;2022-08-04T03:12:36;1.05;;;0.80;;
40991;SDS011;29633;49.168;9.848;2022-08-04T03:15:38;1.05;;;0.65;;
40991;SDS011;29633;49.168;9.848;2022-08-04T03:18:25;1.17;;;0.80;;
40991;SDS011;29633;49.168;9.848;2022-08-04T03:32:48;1.40;;;0.70;;
40991;SDS011;29633;49.168;9.848;2022-08-04T03:50:17;0.70;;;0.70;;
40991;SDS011;29633;49.168;9.848;2022-08-04T03:53:52;0.95;;;0.70;;
40991;SDS011;29633;49.168;9.848;2022-08-04T04:00:02;0.70;;;0.70;;
40991;SDS011;29633;49.168;9.848;2022-08-04T04:08:11;0.98;;;0.75;;
40991;SDS011;29633;49.168;9.848;2022-08-04T04:11:43;1.00;;;0.80;;
40991;SDS011;29633;49.168;9.848;2022-08-04T04:14:53;2.88;;;0.85;;
40991;SDS011;29633;49.168;9.848;2022-08-04T04:17:47;0.70;;;0.70;;
40991;SDS011;29633;49.168;9.848;2022-08-04T04:20:49;0.70;;;0.70;;
40991;SDS011;29633;49.168;9.848;2022-08-04T04:23:44;0.70;;;0.65;;
40991;SDS011;29633;49.168;9.848;2022-08-04T04:32:17;0.80;;;0.80;;
40991;SDS011;29633;49.168;9.848;2022-08-04T04:44:05;1.38;;;0.60;;
40991;SDS011;29633;49.168;9.848;2022-08-04T04:50:27;0.77;;;0.70;;
40991;SDS011;29633;49.168;9.848;2022-08-04T04:56:14;0.90;;;0.80;;
40991;SDS011;29633;49.168;9.848;2022-08-04T04:58:47;0.98;;;0.57;;
40991;SDS011;29633;49.168;9.848;2022-08-04T05:01:38;1.60;;;0.80;;
40991;SDS011;29633;49.168;9.848;2022-08-04T05:16:06;0.95;;;0.70;;
40991;SDS011;29633;49.168;9.848;2022-08-04T05:18:41;0.88;;;0.68;;
40991;SDS011;29633;49.168;9.848;2022-08-04T05:21:25;1.73;;;0.80;;
40991;SDS011;29633;49.168;9.848;2022-08-04T05:24:13;1.00;;;0.68;;
40991;SDS011;29633;49.168;9.848;2022-08-04T05:26:54;1.00;;;0.77;;
40991;SDS011;29633;49.168;9.848;2022-08-04T05:32:00;2.35;;;0.90;;
40991;SDS011;29633;49.168;9.848;2022-08-04T05:34:35;1.17;;;0.80;;
40991;SDS011;29633;49.168;9.848;2022-08-04T05:37:08;1.58;;;0.70;;
40991;SDS011;29633;49.168;9.848;2022-08-04T05:39:43;0.90;;;0.70;;
40991;SDS011;29633;49.168;9.848;2022-08-04T05:42:37;0.60;;;0.60;;
40991;SDS011;29633;49.168;9.848;2022-08-04T05:45:05;1.40;;;0.70;;
40991;SDS011;29633;49.168;9.848;2022-08-04T05:47:33;1.10;;;0.70;;
40991;SDS011;29633;49.168;9.848;2022-08-04T05:50:01;1.52;;;0.80;;
40991;SDS011;29633;49.168;9.848;2022-08-04T05:52:30;3.30;;;0.80;;
40991;SDS011;29633;49.168;9.848;2022-08-04T05:54:58;1.05;;;0.80;;
40991;SDS011;29633;49.168;9.848;2022-08-04T05:57:25;1.05;;;0.80;;
40991;SDS011;29633;49.168;9.848;2022-08-04T05:59:52;1.65;;;0.82;;
40991;SDS011;29633;49.168;9.848;2022-08-04T06:02:21;1.10;;;0.73;;
40991;SDS011;29633;49.168;9.848;2022-08-04T06:04:48;1.23;;;0.85;;
40991;SDS011;29633;49.168;9.848;2022-08-04T06:07:16;2.47;;;0.80;;
40991;SDS011;29633;49.168;9.848;2022-08-04T06:09:42;1.83;;;0.75;;
40991;SDS011;29633;49.168;9.848;2022-08-04T06:12:10;1.58;;;0.82;;
40991;SDS011;29633;49.168;9.848;2022-08-04T06:14:44;2.00;;;0.80;;
40991;SDS011;29633;49.168;9.848;2022-08-04T06:17:29;1.65;;;0.70;;
40991;SDS011;29633;49.168;9.848;2022-08-04T06:20:00;1.63;;;0.73;;
40991;SDS011;29633;49.168;9.848;2022-08-04T06:22:29;1.67;;;0.77;;
40991;SDS011;29633;49.168;9.848;2022-08-04T06:24:58;1.08;;;0.70;;
40991;SDS011;29633;49.168;9.848;2022-08-04T06:27:27;1.73;;;0.68;;
40991;SDS011;29633;49.168;9.848;2022-08-04T06:29:55;1.30;;;0.80;;
40991;SDS011;29633;49.168;9.848;2022-08-04T06:32:23;0.70;;;0.70;;
40991;SDS011;29633;49.168;9.848;2022-08-04T06:35:01;0.80;;;0.60;;
40991;SDS011;29633;49.168;9.848;2022-08-04T06:37:30;1.10;;;0.80;;
40991;SDS011;29633;49.168;9.848;2022-08-04T06:39:58;3.20;;;0.90;;
40991;SDS011;29633;49.168;9.848;2022-08-04T06:42:26;1.42;;;0.70;;
40991;SDS011;29633;49.168;9.848;2022-08-04T06:44:54;0.70;;;0.70;;
40991;SDS011;29633;49.168;9.848;2022-08-04T06:47:22;1.05;;;0.65;;
40991;SDS011;29633;49.168;9.848;2022-08-04T06:49:53;1.95;;;0.77;;
40991;SDS011;29633;49.168;9.848;2022-08-04T06:52:19;0.73;;;0.60;;
40991;SDS011;29633;49.168;9.848;2022-08-04T06:54:46;1.98;;;0.80;;
40991;SDS011;29633;49.168;9.848;2022-08-04T06:57:16;1.38;;;0.60;;
40991;SDS011;29633;49.168;9.848;2022-08-04T06:59:46;0.95;;;0.70;;
40991;SDS011;29633;49.168;9.848;2022-08-04T07:02:20;0.95;;;0.70;;
40991;SDS011;29633;49.168;9.848;2022-08-04T07:04:53;0.90;;;0.73;;
40991;SDS011;29633;49.168;9.848;2022-08-04T07:07:20;2.03;;;0.50;;
40991;SDS011;29633;49.168;9.848;2022-08-04T07:09:49;2.65;;;0.60;;
40991;SDS011;29633;49.168;9.848;2022-08-04T07:12:16;0.85;;;0.60;;
40991;SDS011;29633;49.168;9.848;2022-08-04T07:14:45;0.70;;;0.50;;
40991;SDS011;29633;49.168;9.848;2022-08-04T07:17:13;0.68;;;0.50;;
40991;SDS011;29633;49.168;9.848;2022-08-04T07:19:40;0.70;;;0.60;;
40991;SDS011;29633;49.168;9.848;2022-08-04T07:22:08;0.70;;;0.52;;
40991;SDS011;29633;49.168;9.848;2022-08-04T07:24:35;0.60;;;0.60;;
40991;SDS011;29633;49.168;9.848;2022-08-04T07:27:02;0.90;;;0.70;;
40991;SDS011;29633;49.168;9.848;2022-08-04T07:29:30;4.93;;;0.77;;
40991;SDS011;29633;49.168;9.848;2022-08-04T07:31:59;0.85;;;0.60;;
40991;SDS011;29633;49.168;9.848;2022-08-04T07:34:27;0.50;;;0.50;;
40991;SDS011;29633;49.168;9.848;2022-08-04T07:36:54;0.90;;;0.60;;
40991;SDS011;29633;49.168;9.848;2022-08-04T07:39:22;0.82;;;0.70;;
40991;SDS011;29633;49.168;9.848;2022-08-04T07:41:50;2.35;;;0.60;;
40991;SDS011;29633;49.168;9.848;2022-08-04T07:44:17;0.90;;;0.60;;
40991;SDS011;29633;49.168;9.848;2022-08-04T07:46:44;3.42;;;0.70;;
40991;SDS011;29633;49.168;9.848;2022-08-04T07:49:10;1.45;;;0.70;;
40991;SDS011;29633;49.168;9.848;2022-08-04T07:51:37;2.13;;;0.50;;
40991;SDS011;29633;49.168;9.848;2022-08-04T07:54:05;1.10;;;0.73;;
40991;SDS011;29633;49.168;9.848;2022-08-04T07:56:35;0.93;;;0.70;;
40991;SDS011;29633;49.168;9.848;2022-08-04T07:59:05;3.13;;;0.70;;
40991;SDS011;29633;49.168;9.848;2022-08-04T08:01:33;0.70;;;0.70;;
40991;SDS011;29633;49.168;9.848;2022-08-04T08:04:00;1.00;;;0.60;;
40991;SDS011;29633;49.168;9.848;2022-08-04T08:06:29;1.05;;;0.50;;
40991;SDS011;29633;49.168;9.848;2022-08-04T08:08:55;1.60;;;0.60;;
40991;SDS011;29633;49.168;9.848;2022-08-04T08:11:22;3.33;;;0.70;;
40991;SDS011;29633;49.168;9.848;2022-08-04T08:13:48;2.90;;;0.70;;
40991;SDS011;29633;49.168;9.848;2022-08-04T08:16:13;0.90;;;0.50;;
40991;SDS011;29633;49.168;9.848;2022-08-04T08:18:40;2.25;;;0.60;;
40991;SDS011;29633;49.168;9.848;2022-08-04T08:21:05;0.65;;;0.50;;
40991;SDS011;29633;49.168;9.848;2022-08-04T08:23:33;1.00;;;0.60;;
40991;SDS011;29633;49.168;9.848;2022-08-04T08:26:00;3.03;;;0.60;;
40991;SDS011;29633;49.168;9.848;2022-08-04T08:28:26;1.25;;;0.50;;
40991;SDS011;29633;49.168;9.848;2022-08-04T08:30:52;0.68;;;0.47;;
40991;SDS011;29633;49.168;9.848;2022-08-04T08:33:18;0.50;;;0.50;;
40991;SDS011;29633;49.168;9.848;2022-08-04T08:35:57;0.63;;;0.40;;
40991;SDS011;29633;49.168;9.848;2022-08-04T08:38:36;0.63;;;0.50;;
40991;SDS011;29633;49.168;9.848;2022-08-04T08:41:35;0.60;;;0.50;;
40991;SDS011;29633;49.168;9.848;2022-08-04T08:44:28;2.05;;;0.40;;
40991;SDS011;29633;49.168;9.848;2022-08-04T08:53:49;2.42;;;0.50;;
40991;SDS011;29633;49.168;9.848;2022-08-04T08:56:52;0.50;;;0.47;;
40991;SDS011;29633;49.168;9.848;2022-08-04T09:02:56;0.80;;;0.40;;
40991;SDS011;29633;49.168;9.848;2022-08-04T09:05:54;2.35;;;0.40;;
40991;SDS011;29633;49.168;9.848;2022-08-04T09:09:08;0.60;;;0.43;;
40991;SDS011;29633;49.168;9.848;2022-08-04T09:11:49;1.27;;;0.50;;
40991;SDS011;29633;49.168;9.848;2022-08-04T09:17:26;0.52;;;0.50;;
40991;SDS011;29633;49.168;9.848;2022-08-04T09:20:05;0.40;;;0.40;;
40991;SDS011;29633;49.168;9.848;2022-08-04T09:22:48;0.73;;;0.50;;
40991;SDS011;29633;49.168;9.848;2022-08-04T09:26:08;5.82;;;0.60;;
40991;SDS011;29633;49.168;9.848;2022-08-04T09:43:28;1.15;;;0.47;;
40991;SDS011;29633;49.168;9.848;2022-08-04T09:46:22;0.50;;;0.38;;
40991;SDS011;29633;49.168;9.848;2022-08-04T09:49:06;0.43;;;0.30;;
40991;SDS011;29633;49.168;9.848;2022-08-04T10:00:08;0.55;;;0.50;;
40991;SDS011;29633;49.168;9.848;2022-08-04T10:02:38;0.65;;;0.47;;
40991;SDS011;29633;49.168;9.848;2022-08-04T10:05:15;0.93;;;0.50;;
40991;SDS011;29633;49.168;9.848;2022-08-04T10:13:37;0.40;;;0.35;;
40991;SDS011;29633;49.168;9.848;2022-08-04T10:19:35;0.50;;;0.40;;
40991;SDS011;29633;49.168;9.848;2022-08-04T10:25:02;0.32;;;0.30;;
40991;SDS011;29633;49.168;9.848;2022-08-04T10:27:50;3.33;;;0.40;;
40991;SDS011;29633;49.168;9.848;2022-08-04T10:30:19;0.70;;;0.40;;
40991;SDS011;29633;49.168;9.848;2022-08-04T10:32:48;0.80;;;0.50;;
40991;SDS011;29633;49.168;9.848;2022-08-04T10:35:59;0.45;;;0.40;;
40991;SDS011;29633;49.168;9.848;2022-08-04T10:38:31;0.85;;;0.50;;
40991;SDS011;29633;49.168;9.848;2022-08-04T10:46:49;0.50;;;0.40;;
40991;SDS011;29633;49.168;9.848;2022-08-04T10:49:23;1.02;;;0.50;;
40991;SDS011;29633;49.168;9.848;2022-08-04T10:52:06;1.17;;;0.40;;
40991;SDS011;29633;49.168;9.848;2022-08-04T10:57:32;0.50;;;0.40;;
40991;SDS011;29633;49.168;9.848;2022-08-04T11:00:27;0.55;;;0.47;;
40991;SDS011;29633;49.168;9.848;2022-08-04T11:03:05;1.98;;;0.50;;
40991;SDS011;29633;49.168;9.848;2022-08-04T11:08:13;0.53;;;0.50;;
40991;SDS011;29633;49.168;9.848;2022-08-04T11:10:47;0.43;;;0.40;;
40991;SDS011;29633;49.168;9.848;2022-08-04T11:13:22;0.60;;;0.50;;
40991;SDS011;29633;49.168;9.848;2022-08-04T11:15:53;0.45;;;0.40;;
40991;SDS011;29633;49.168;9.848;2022-08-04T11:18:34;0.50;;;0.40;;
40991;SDS011;29633;49.168;9.848;2022-08-04T11:21:21;1.02;;;0.40;;
40991;SDS011;29633;49.168;9.848;2022-08-04T11:23:57;0.73;;;0.40;;
40991;SDS011;29633;49.168;9.848;2022-08-04T11:26:48;0.63;;;0.40;;
40991;SDS011;29633;49.168;9.848;2022-08-04T11:29:26;0.70;;;0.50;;
40991;SDS011;29633;49.168;9.848;2022-08-04T11:32:12;0.40;;;0.40;;
40991;SDS011;29633;49.168;9.848;2022-08-04T11:34:46;2.70;;;0.47;;
40991;SDS011;29633;49.168;9.848;2022-08-04T11:37:24;0.50;;;0.40;;
40991;SDS011;29633;49.168;9.848;2022-08-04T11:39:59;0.40;;;0.40;;
40991;SDS011;29633;49.168;9.848;2022-08-04T11:42:37;0.45;;;0.45;;
40991;SDS011;29633;49.168;9.848;2022-08-04T11:45:10;0.60;;;0.60;;
40991;SDS011;29633;49.168;9.848;2022-08-04T11:47:47;0.52;;;0.50;;
40991;SDS011;29633;49.168;9.848;2022-08-04T11:50:37;1.10;;;0.60;;
40991;SDS011;29633;49.168;9.848;2022-08-04T11:53:12;0.50;;;0.50;;
40991;SDS011;29633;49.168;9.848;2022-08-04T11:55:43;1.10;;;0.50;;
40991;SDS011;29633;49.168;9.848;2022-08-04T11:58:13;0.50;;;0.50;;
40991;SDS011;29633;49.168;9.848;2022-08-04T12:00:41;2.40;;;0.60;;
40991;SDS011;29633;49.168;9.848;2022-08-04T12:03:51;1.42;;;0.60;;
40991;SDS011;29633;49.168;9.848;2022-08-04T12:06:56;0.45;;;0.45;;
40991;SDS011;29633;49.168;9.848;2022-08-04T12:17:26;1.27;;;0.40;;
40991;SDS011;29633;49.168;9.848;2022-08-04T12:20:03;0.88;;;0.50;;
40991;SDS011;29633;49.168;9.848;2022-08-04T12:22:39;0.40;;;0.40;;
40991;SDS011;29633;49.168;9.848;2022-08-04T12:25:13;0.65;;;0.47;;
40991;SDS011;29633;49.168;9.848;2022-08-04T12:30:19;0.60;;;0.55;;
40991;SDS011;29633;49.168;9.848;2022-08-04T12:36:10;0.88;;;0.40;;
40991;SDS011;29633;49.168;9.848;2022-08-04T12:38:47;0.38;;;0.38;;
40991;SDS011;29633;49.168;9.848;2022-08-04T12:41:35;1.00;;;0.57;;
40991;SDS011;29633;49.168;9.848;2022-08-04T12:44:10;0.98;;;0.50;;
40991;SDS011;29633;49.168;9.848;2022-08-04T12:46:38;1.38;;;0.52;;
40991;SDS011;29633;49.168;9.848;2022-08-04T12:49:08;0.60;;;0.52;;
40991;SDS011;29633;49.168;9.848;2022-08-04T12:51:38;0.43;;;0.43;;
40991;SDS011;29633;49.168;9.848;2022-08-04T12:54:07;0.88;;;0.50;;
40991;SDS011;29633;49.168;9.848;2022-08-04T12:56:34;0.70;;;0.50;;
40991;SDS011;29633;49.168;9.848;2022-08-04T12:59:08;0.98;;;0.60;;
40991;SDS011;29633;49.168;9.848;2022-08-04T13:01:36;0.57;;;0.57;;
40991;SDS011;29633;49.168;9.848;2022-08-04T13:04:17;0.82;;;0.60;;
40991;SDS011;29633;49.168;9.848;2022-08-04T13:06:54;0.55;;;0.50;;
40991;SDS011;29633;49.168;9.848;2022-08-04T13:09:28;2.35;;;0.52;;
40991;SDS011;29633;49.168;9.848;2022-08-04T13:12:02;0.60;;;0.60;;
40991;SDS011;29633;49.168;9.848;2022-08-04T13:14:37;0.70;;;0.50;;
40991;SDS011;29633;49.168;9.848;2022-08-04T13:17:08;0.68;;;0.57;;
40991;SDS011;29633;49.168;9.848;2022-08-04T13:19:35;0.70;;;0.52;;
40991;SDS011;29633;49.168;9.848;2022-08-04T13:22:02;1.77;;;0.60;;
40991;SDS011;29633;49.168;9.848;2022-08-04T13:24:29;0.50;;;0.50;;
40991;SDS011;29633;49.168;9.848;2022-08-04T13:27:02;0.50;;;0.43;;
40991;SDS011;29633;49.168;9.848;2022-08-04T13:29:39;2.15;;;0.50;;
40991;SDS011;29633;49.168;9.848;2022-08-04T13:32:09;1.15;;;0.50;;
40991;SDS011;29633;49.168;9.848;2022-08-04T13:37:07;0.85;;;0.45;;
40991;SDS011;29633;49.168;9.848;2022-08-04T13:39:35;0.75;;;0.55;;
40991;SDS011;29633;49.168;9.848;2022-08-04T13:42:02;1.50;;;0.47;;
40991;SDS011;29633;49.168;9.848;2022-08-04T13:44:36;1.00;;;0.60;;
40991;SDS011;29633;49.168;9.848;2022-08-04T13:47:06;0.75;;;0.50;;
40991;SDS011;29633;49.168;9.848;2022-08-04T13:49:38;0.63;;;0.40;;
40991;SDS011;29633;49.168;9.848;2022-08-04T13:52:05;0.60;;;0.50;;
40991;SDS011;29633;49.168;9.848;2022-08-04T13:57:17;2.38;;;0.50;;
40991;SDS011;29633;49.168;9.848;2022-08-04T13:59:49;1.30;;;0.50;;
40991;SDS011;29633;49.168;9.848;2022-08-04T14:02:24;1.60;;;0.50;;
40991;SDS011;29633;49.168;9.848;2022-08-04T14:05:23;1.38;;;0.50;;
40991;SDS011;29633;49.168;9.848;2022-08-04T14:07:59;0.55;;;0.50;;
40991;SDS011;29633;49.168;9.848;2022-08-04T14:10:36;1.13;;;0.45;;
40991;SDS011;29633;49.168;9.848;2022-08-04T14:13:04;1.60;;;0.50;;
40991;SDS011;29633;49.168;9.848;2022-08-04T14:15:39;0.52;;;0.40;;
40991;SDS011;29633;49.168;9.848;2022-08-04T14:18:18;0.50;;;0.50;;
40991;SDS011;29633;49.168;9.848;2022-08-04T14:29:12;0.65;;;0.50;;
40991;SDS011;29633;49.168;9.848;2022-08-04T14:31:41;0.70;;;0.50;;
40991;SDS011;29633;49.168;9.848;2022-08-04T14:34:07;1.00;;;0.43;;
40991;SDS011;29633;49.168;9.848;2022-08-04T14:36:37;0.70;;;0.60;;
40991;SDS011;29633;49.168;9.848;2022-08-04T14:39:05;2.28;;;0.40;;
40991;SDS011;29633;49.168;9.848;2022-08-04T14:41:45;0.63;;;0.40;;
40991;SDS011;29633;49.168;9.848;2022-08-04T14:44:14;0.77;;;0.50;;
40991;SDS011;29633;49.168;9.848;2022-08-04T14:46:50;0.52;;;0.52;;
40991;SDS011;29633;49.168;9.848;2022-08-04T14:49:19;0.82;;;0.60;;
40991;SDS011;29633;49.168;9.848;2022-08-04T14:51:56;0.75;;;0.50;;
40991;SDS011;29633;49.168;9.848;2022-08-04T14:54:31;0.77;;;0.50;;
40991;SDS011;29633;49.168;9.848;2022-08-04T14:57:03;0.82;;;0.50;;
40991;SDS011;29633;49.168;9.848;2022-08-04T14:59:40;0.50;;;0.50;;
40991;SDS011;29633;49.168;9.848;2022-08-04T15:02:12;0.65;;;0.45;;
40991;SDS011;29633;49.168;9.848;2022-08-04T15:04:40;0.60;;;0.45;;
40991;SDS011;29633;49.168;9.848;2022-08-04T15:07:09;0.60;;;0.60;;
40991;SDS011;29633;49.168;9.848;2022-08-04T15:09:35;2.45;;;0.60;;
40991;SDS011;29633;49.168;9.848;2022-08-04T15:12:02;2.13;;;0.50;;
40991;SDS011;29633;49.168;9.848;2022-08-04T15:14:29;1.92;;;0.43;;
40991;SDS011;29633;49.168;9.848;2022-08-04T15:16:56;0.85;;;0.50;;
40991;SDS011;29633;49.168;9.848;2022-08-04T15:19:22;1.25;;;0.60;;
40991;SDS011;29633;49.168;9.848;2022-08-04T15:21:49;0.77;;;0.60;;
40991;SDS011;29633;49.168;9.848;2022-08-04T15:24:16;0.50;;;0.50;;
40991;SDS011;29633;49.168;9.848;2022-08-04T15:26:43;0.80;;;0.50;;
40991;SDS011;29633;49.168;9.848;2022-08-04T15:32:01;0.50;;;0.47;;
40991;SDS011;29633;49.168;9.848;2022-08-04T15:34:42;0.73;;;0.53;;
40991;SDS011;29633;49.168;9.848;2022-08-04T15:37:30;0.47;;;0.47;;
40991;SDS011;29633;49.168;9.848;2022-08-04T15:40:18;1.42;;;0.50;;
40991;SDS011;29633;49.168;9.848;2022-08-04T15:45:46;0.85;;;0.60;;
40991;SDS011;29633;49.168;9.848;2022-08-04T15:53:28;1.92;;;0.50;;
40991;SDS011;29633;49.168;9.848;2022-08-04T15:56:41;0.88;;;0.70;;
40991;SDS011;29633;49.168;9.848;2022-08-04T15:58:56;0.75;;;0.55;;
40991;SDS011;29633;49.168;9.848;2022-08-04T16:01:22;1.77;;;0.60;;
40991;SDS011;29633;49.168;9.848;2022-08-04T16:03:49;1.65;;;0.63;;
40991;SDS011;29633;49.168;9.848;2022-08-04T16:14:21;2.45;;;0.63;;
40991;SDS011;29633;49.168;9.848;2022-08-04T16:19:32;1.60;;;0.50;;
40991;SDS011;29633;49.168;9.848;2022-08-04T16:22:31;0.75;;;0.50;;
40991;SDS011;29633;49.168;9.848;2022-08-04T16:25:04;0.50;;;0.50;;
40991;SDS011;29633;49.168;9.848;2022-08-04T16:27:39;1.50;;;0.55;;
40991;SDS011;29633;49.168;9.848;2022-08-04T16:30:12;0.82;;;0.50;;
40991;SDS011;29633;49.168;9.848;2022-08-04T16:32:40;0.85;;;0.60;;
40991;SDS011;29633;49.168;9.848;2022-08-04T16:35:18;1.08;;;0.57;;
40991;SDS011;29633;49.168;9.848;2022-08-04T16:37:54;0.75;;;0.68;;
40991;SDS011;29633;49.168;9.848;2022-08-04T16:40:39;2.05;;;0.60;;
40991;SDS011;29633;49.168;9.848;2022-08-04T16:43:13;0.75;;;0.60;;
40991;SDS011;29633;49.168;9.848;2022-08-04T16:45:48;0.52;;;0.50;;
40991;SDS011;29633;49.168;9.848;2022-08-04T16:48:29;1.50;;;0.60;;
40991;SDS011;29633;49.168;9.848;2022-08-04T16:51:08;1.33;;;0.80;;
40991;SDS011;29633;49.168;9.848;2022-08-04T16:53:41;2.70;;;0.60;;
40991;SDS011;29633;49.168;9.848;2022-08-04T16:56:09;1.20;;;0.75;;
40991;SDS011;29633;49.168;9.848;2022-08-04T16:58:38;3.10;;;0.60;;
40991;SDS011;29633;49.168;9.848;2022-08-04T17:01:08;1.30;;;0.60;;
40991;SDS011;29633;49.168;9.848;2022-08-04T17:03:37;2.42;;;0.50;;
40991;SDS011;29633;49.168;9.848;2022-08-04T17:06:07;0.82;;;0.55;;
40991;SDS011;29633;49.168;9.848;2022-08-04T17:08:36;1.67;;;0.55;;
40991;SDS011;29633;49.168;9.848;2022-08-04T17:11:02;1.25;;;0.63;;
40991;SDS011;29633;49.168;9.848;2022-08-04T17:13:30;1.13;;;0.70;;
40991;SDS011;29633;49.168;9.848;2022-08-04T17:16:11;1.25;;;0.50;;
40991;SDS011;29633;49.168;9.848;2022-08-04T17:18:44;1.05;;;0.65;;
40991;SDS011;29633;49.168;9.848;2022-08-04T17:23:51;1.25;;;0.60;;
40991;SDS011;29633;49.168;9.848;2022-08-04T17:26:20;0.93;;;0.65;;
40991;SDS011;29633;49.168;9.848;2022-08-04T17:28:51;1.38;;;0.60;;
40991;SDS011;29633;49.168;9.848;2022-08-04T17:31:19;0.75;;;0.60;;
40991;SDS011;29633;49.168;9.848;2022-08-04T17:33:49;1.92;;;0.57;;
40991;SDS011;29633;49.168;9.848;2022-08-04T17:36:22;0.98;;;0.50;;
40991;SDS011;29633;49.168;9.848;2022-08-04T17:38:51;0.55;;;0.50;;
40991;SDS011;29633;49.168;9.848;2022-08-04T17:41:24;0.60;;;0.60;;
40991;SDS011;29633;49.168;9.848;2022-08-04T17:43:53;1.58;;;0.60;;
40991;SDS011;29633;49.168;9.848;2022-08-04T17:46:41;2.15;;;0.60;;
40991;SDS011;29633;49.168;9.848;2022-08-04T17:56:51;1.00;;;0.60;;
40991;SDS011;29633;49.168;9.848;2022-08-04T17:59:25;1.15;;;0.70;;
40991;SDS011;29633;49.168;9.848;2022-08-04T18:02:04;0.90;;;0.60;;
40991;SDS011;29633;49.168;9.848;2022-08-04T18:07:18;0.82;;;0.50;;
40991;SDS011;29633;49.168;9.848;2022-08-04T18:12:47;1.52;;;0.65;;
40991;SDS011;29633;49.168;9.848;2022-08-04T18:15:09;1.17;;;0.55;;
40991;SDS011;29633;49.168;9.848;2022-08-04T18:17:46;0.45;;;0.45;;
40991;SDS011;29633;49.168;9.848;2022-08-04T18:20:16;1.35;;;0.77;;
40991;SDS011;29633;49.168;9.848;2022-08-04T18:22:44;1.00;;;0.80;;
40991;SDS011;29633;49.168;9.848;2022-08-04T18:25:11;1.60;;;0.60;;
40991;SDS011;29633;49.168;9.848;2022-08-04T18:27:48;0.60;;;0.60;;
40991;SDS011;29633;49.168;9.848;2022-08-04T18:30:15;0.77;;;0.70;;
40991;SDS011;29633;49.168;9.848;2022-08-04T18:32:42;1.58;;;0.57;;
40991;SDS011;29633;49.168;9.848;2022-08-04T18:35:08;0.70;;;0.70;;
40991;SDS011;29633;49.168;9.848;2022-08-04T18:37:37;0.73;;;0.60;;
40991;SDS011;29633;49.168;9.848;2022-08-04T18:40:05;1.00;;;0.70;;
40991;SDS011;29633;49.168;9.848;2022-08-04T18:42:34;0.98;;;0.73;;
40991;SDS011;29633;49.168;9.848;2022-08-04T18:45:00;0.70;;;0.70;;
40991;SDS011;29633;49.168;9.848;2022-08-04T18:47:28;1.55;;;0.60;;
40991;SDS011;29633;49.168;9.848;2022-08-04T18:49:54;0.50;;;0.50;;
40991;SDS011;29633;49.168;9.848;2022-08-04T18:52:20;0.88;;;0.70;;
40991;SDS011;29633;49.168;9.848;2022-08-04T18:54:47;0.80;;;0.80;;
40991;SDS011;29633;49.168;9.848;2022-08-04T18:57:19;0.60;;;0.60;;
40991;SDS011;29633;49.168;9.848;2022-08-04T18:59:47;0.82;;;0.60;;
40991;SDS011;29633;49.168;9.848;2022-08-04T19:02:14;1.45;;;0.80;;
40991;SDS011;29633;49.168;9.848;2022-08-04T19:04:40;1.08;;;0.60;;
40991;SDS011;29633;49.168;9.848;2022-08-04T19:07:06;1.75;;;0.65;;
40991;SDS011;29633;49.168;9.848;2022-08-04T19:09:33;0.75;;;0.75;;
40991;SDS011;29633;49.168;9.848;2022-08-04T19:11:59;1.05;;;0.70;;
40991;SDS011;29633;49.168;9.848;2022-08-04T19:14:25;0.88;;;0.70;;
40991;SDS011;29633;49.168;9.848;2022-08-04T19:16:51;0.77;;;0.60;;
40991;SDS011;29633;49.168;9.848;2022-08-04T19:19:17;1.20;;;0.65;;
40991;SDS011;29633;49.168;9.848;2022-08-04T19:21:43;0.90;;;0.60;;
40991;SDS011;29633;49.168;9.848;2022-08-04T19:24:09;1.55;;;0.60;;
40991;SDS011;29633;49.168;9.848;2022-08-04T19:26:36;1.38;;;0.70;;
40991;SDS011;29633;49.168;9.848;2022-08-04T19:29:02;0.73;;;0.65;;
40991;SDS011;29633;49.168;9.848;2022-08-04T19:31:29;1.10;;;0.80;;
40991;SDS011;29633;49.168;9.848;2022-08-04T19:33:55;0.98;;;0.80;;
40991;SDS011;29633;49.168;9.848;2022-08-04T19:36:21;0.80;;;0.80;;
40991;SDS011;29633;49.168;9.848;2022-08-04T19:38:51;1.10;;;0.80;;
40991;SDS011;29633;49.168;9.848;2022-08-04T19:41:17;1.00;;;0.75;;
40991;SDS011;29633;49.168;9.848;2022-08-04T19:43:43;1.60;;;0.80;;